Lowell, Arkansas
Current Conditions -  °F | °C
As of 8:48 PM on Friday 24 Oct 2014 (Local Time) from KASG Reporting Station
Clear Clear  
Wind Chill: 64°   Ceiling: Unl
Heat Index: 64°   Visibility: 10mi
Dew Point: 59°   Wind: 3mph
Humidity: 83%   Direction: 150°SSE
Pressure: 30.1"   Gusts: NA
Location:  36.26°N, 94.13°W
Report Text: KASG 250148Z 15003KT 10SM SKC 18/15 A3010
Loading
Personal Weather Stations






























Interactive Weather Map
Tropical Storm Tracking
New forecast layout! Learn more

10-Day Weather Forecast

Advertisements
Track Severe Weather on mobile